createdAt,value
2023-03-15T00:00:42.561Z,5.57
2023-03-15T00:03:14.915Z,5.43
2023-03-15T00:05:46.305Z,5.50
2023-03-15T00:08:17.543Z,5.65
2023-03-15T00:10:52.215Z,7.43
2023-03-15T00:13:22.359Z,7.88
2023-03-15T00:15:54.578Z,7.05
2023-03-15T00:18:25.101Z,5.70
2023-03-15T00:20:58.660Z,8.13
2023-03-15T00:23:28.967Z,7.25
2023-03-15T00:26:01.684Z,9.25
2023-03-15T00:28:31.807Z,6.85
2023-03-15T00:31:09.644Z,6.65
2023-03-15T00:33:39.989Z,5.22
2023-03-15T00:36:12.176Z,6.85
2023-03-15T00:38:44.200Z,6.07
2023-03-15T00:41:19.532Z,5.13
2023-03-15T00:43:50.255Z,7.00
2023-03-15T00:46:22.436Z,8.38
2023-03-15T00:48:53.484Z,7.22
2023-03-15T00:51:25.926Z,7.65
2023-03-15T00:53:56.888Z,8.13
2023-03-15T00:56:30.922Z,5.50
2023-03-15T00:59:01.855Z,6.65
2023-03-15T01:01:33.516Z,6.97
2023-03-15T01:04:04.280Z,9.15
2023-03-15T01:06:34.449Z,7.65
2023-03-15T01:09:04.718Z,6.57
2023-03-15T01:11:38.084Z,7.00
2023-03-15T01:14:08.997Z,7.35
2023-03-15T01:16:39.104Z,7.80
2023-03-15T01:19:09.587Z,7.13
2023-03-15T01:21:39.820Z,7.57
2023-03-15T01:24:10.640Z,8.95
2023-03-15T01:26:43.967Z,6.05
2023-03-15T01:29:14.308Z,6.95
2023-03-15T01:31:44.784Z,8.15
2023-03-15T01:34:15.104Z,7.05
2023-03-15T01:36:45.379Z,5.90
2023-03-15T01:39:15.570Z,6.45
2023-03-15T01:41:48.658Z,6.13
2023-03-15T01:44:22.106Z,7.20
2023-03-15T01:46:52.435Z,8.00
2023-03-15T01:49:26.855Z,7.45
2023-03-15T01:52:01.639Z,7.07
2023-03-15T01:54:35.287Z,6.43
2023-03-15T01:57:12.075Z,6.72
2023-03-15T01:59:48.427Z,7.15
2023-03-15T02:02:18.966Z,7.20
2023-03-15T02:04:53.024Z,7.40
2023-03-15T02:10:03.250Z,7.15
2023-03-15T02:12:39.594Z,7.57
2023-03-15T02:15:11.721Z,7.45
2023-03-15T02:17:43.961Z,6.90
2023-03-15T02:20:27.623Z,8.10
2023-03-15T02:23:00.854Z,8.30
2023-03-15T02:25:42.571Z,8.17
2023-03-15T02:28:21.060Z,6.97
2023-03-15T02:30:52.230Z,7.72
2023-03-15T02:33:27.220Z,6.95
2023-03-15T02:35:58.332Z,10.80
2023-03-15T02:38:28.680Z,7.22
2023-03-15T02:40:58.835Z,7.82
2023-03-15T02:43:34.624Z,8.57
2023-03-15T02:46:06.543Z,7.57
2023-03-15T02:48:38.510Z,7.60
2023-03-15T02:51:09.610Z,7.25
2023-03-15T02:53:39.851Z,8.40
2023-03-15T02:56:10.849Z,9.20
2023-03-15T02:58:45.895Z,7.75
2023-03-15T03:01:16.520Z,9.27
2023-03-15T03:03:49.280Z,8.65
2023-03-15T03:06:20.961Z,7.68
2023-03-15T03:08:51.172Z,8.98
2023-03-15T03:11:21.415Z,8.88
2023-03-15T03:13:54.193Z,6.90
2023-03-15T03:16:24.695Z,9.45
2023-03-15T03:18:54.894Z,9.05
2023-03-15T03:21:25.207Z,8.35
2023-03-15T03:23:55.758Z,9.07
2023-03-15T03:26:28.211Z,8.50
2023-03-15T03:29:01.251Z,10.20
2023-03-15T03:31:35.302Z,11.23
2023-03-15T03:34:05.640Z,9.23
2023-03-15T03:36:35.856Z,9.73
2023-03-15T03:39:06.302Z,10.52
2023-03-15T03:41:36.488Z,9.43
2023-03-15T03:44:09.464Z,9.68
2023-03-15T03:46:39.584Z,9.85
2023-03-15T03:49:10.256Z,8.60
2023-03-15T03:51:41.380Z,7.53
2023-03-15T03:54:11.519Z,8.90
2023-03-15T03:56:41.728Z,9.95
2023-03-15T03:59:14.734Z,9.98
2023-03-15T04:01:46.194Z,10.48
2023-03-15T04:04:16.500Z,8.55
2023-03-15T04:06:47.291Z,9.18
2023-03-15T04:09:19.259Z,11.65
2023-03-15T04:11:49.540Z,9.57
2023-03-15T04:14:22.290Z,10.43
2023-03-15T04:16:52.531Z,10.85
2023-03-15T04:19:23.313Z,9.75
2023-03-15T04:21:53.585Z,10.70
2023-03-15T04:24:23.842Z,8.82
2023-03-15T04:26:58.056Z,10.70
2023-03-15T04:29:31.392Z,9.98
2023-03-15T04:32:03.355Z,10.77
2023-03-15T04:34:39.051Z,9.32
2023-03-15T04:37:09.659Z,11.45
2023-03-15T04:39:39.907Z,11.68
2023-03-15T04:42:10.969Z,9.82
2023-03-15T04:44:43.784Z,8.85
2023-03-15T04:47:14.205Z,10.93
2023-03-15T04:49:44.472Z,12.02
2023-03-15T04:52:14.936Z,9.40
2023-03-15T04:54:45.105Z,9.10
2023-03-15T04:57:15.370Z,10.13
2023-03-15T04:59:48.387Z,11.52
2023-03-15T05:02:18.662Z,10.23
2023-03-15T05:04:48.991Z,9.32
2023-03-15T05:07:19.149Z,10.75
2023-03-15T05:09:52.423Z,10.98
2023-03-15T05:12:22.631Z,11.40
2023-03-15T05:14:55.373Z,9.93
2023-03-15T05:17:25.675Z,12.05
2023-03-15T05:19:56.999Z,10.30
2023-03-15T05:22:27.402Z,10.25
2023-03-15T05:24:57.634Z,10.50
2023-03-15T05:27:28.490Z,10.73
2023-03-15T05:30:03.229Z,9.90
2023-03-15T05:32:34.561Z,10.25
2023-03-15T05:35:06.463Z,8.45
2023-03-15T05:37:36.816Z,9.25
2023-03-15T05:40:13.880Z,10.88
2023-03-15T05:42:45.973Z,10.23
2023-03-15T05:45:18.872Z,9.52
2023-03-15T05:47:49.038Z,9.43
2023-03-15T05:50:22.161Z,9.40
2023-03-15T05:52:53.971Z,9.40
2023-03-15T05:55:24.218Z,8.80
2023-03-15T05:57:54.541Z,9.65
2023-03-15T06:00:28.084Z,11.05
2023-03-15T06:02:58.821Z,10.77
2023-03-15T06:05:29.218Z,8.25
2023-03-15T06:07:59.481Z,9.07
2023-03-15T06:10:29.746Z,8.73
2023-03-15T06:13:00.678Z,9.75
2023-03-15T06:15:33.447Z,8.57
2023-03-15T06:18:03.719Z,9.55
2023-03-15T06:20:34.224Z,8.45
2023-03-15T06:23:04.388Z,9.38
2023-03-15T06:25:34.608Z,10.07
2023-03-15T06:28:04.952Z,8.50
2023-03-15T06:30:38.628Z,10.00
2023-03-15T06:33:09.037Z,9.80
2023-03-15T06:35:39.193Z,8.05
2023-03-15T06:38:11.869Z,10.30
2023-03-15T06:40:42.706Z,14.77
2023-03-15T06:43:18.435Z,22.23
2023-03-15T06:45:53.566Z,16.20
2023-03-15T06:48:23.869Z,11.85
2023-03-15T06:50:54.490Z,10.70
2023-03-15T06:53:24.650Z,9.98
2023-03-15T06:55:54.800Z,10.30
2023-03-15T06:58:25.219Z,10.32
2023-03-15T07:01:05.082Z,9.77
2023-03-15T07:03:35.417Z,9.43
2023-03-15T07:06:05.913Z,8.80
2023-03-15T07:08:36.334Z,8.93
2023-03-15T07:11:06.923Z,10.40
2023-03-15T07:13:37.118Z,8.98
2023-03-15T07:16:10.165Z,9.10
2023-03-15T07:18:40.723Z,11.18
2023-03-15T07:21:11.042Z,11.80
2023-03-15T07:23:41.249Z,9.98
2023-03-15T07:26:11.594Z,10.52
2023-03-15T07:28:43.740Z,9.95
2023-03-15T07:31:17.804Z,11.63
2023-03-15T07:33:47.941Z,11.13
2023-03-15T07:36:18.511Z,10.88
2023-03-15T07:38:48.894Z,11.82
2023-03-15T07:41:19.136Z,17.38
2023-03-15T07:43:49.963Z,11.10
2023-03-15T07:46:22.766Z,10.05
2023-03-15T07:48:53.174Z,10.82
2023-03-15T07:51:23.328Z,9.60
2023-03-15T07:53:53.735Z,9.18
2023-03-15T07:56:23.938Z,14.80
2023-03-15T07:58:54.565Z,11.18
2023-03-15T08:01:30.520Z,11.35
2023-03-15T08:04:00.925Z,11.18
2023-03-15T08:06:31.880Z,11.35
2023-03-15T08:09:04.753Z,10.07
2023-03-15T08:14:06.611Z,12.43
2023-03-15T08:16:39.445Z,5.57
2023-03-15T08:19:10.978Z,3.50
2023-03-15T08:21:45.443Z,1.83
2023-03-15T08:24:15.810Z,3.20
2023-03-15T08:26:46.125Z,2.58
2023-03-15T08:29:16.315Z,2.28
2023-03-15T08:31:49.835Z,2.17
2023-03-15T08:34:19.999Z,3.40
2023-03-15T08:36:53.196Z,4.13
2023-03-15T08:39:24.169Z,4.90
2023-03-15T08:41:54.464Z,1.92
2023-03-15T08:44:24.705Z,2.53
2023-03-15T08:46:57.548Z,2.35
2023-03-15T08:49:28.135Z,2.90
2023-03-15T08:51:58.416Z,3.40
2023-03-15T08:54:28.691Z,5.88
2023-03-15T08:57:01.355Z,6.85
2023-03-15T08:59:33.013Z,4.22
2023-03-15T09:02:05.961Z,2.92
2023-03-15T09:04:36.513Z,4.78
2023-03-15T09:07:06.800Z,6.35
2023-03-15T09:09:37.346Z,3.10
2023-03-15T09:12:07.949Z,3.78
2023-03-15T09:14:38.169Z,5.82
2023-03-15T09:17:15.143Z,4.45
2023-03-15T09:19:45.488Z,5.18
2023-03-15T09:22:23.856Z,4.97
2023-03-15T09:25:08.754Z,5.45
2023-03-15T09:27:39.364Z,4.20
2023-03-15T09:30:14.238Z,3.43
2023-03-15T09:32:47.888Z,3.72
2023-03-15T09:35:19.650Z,4.30
2023-03-15T09:37:51.034Z,2.50
2023-03-15T09:40:28.307Z,4.40
2023-03-15T09:43:31.116Z,3.88
2023-03-15T09:46:13.745Z,3.80
2023-03-15T09:48:53.697Z,2.67
2023-03-15T09:51:36.092Z,3.72
2023-03-15T09:54:11.488Z,5.45
2023-03-15T09:56:47.315Z,4.45
2023-03-15T09:59:23.090Z,3.75
2023-03-15T10:01:58.893Z,3.75
2023-03-15T10:04:34.827Z,3.35
2023-03-15T10:07:06.890Z,4.20
2023-03-15T10:09:38.062Z,2.53
2023-03-15T10:12:15.442Z,2.35
2023-03-15T10:15:04.913Z,4.05
2023-03-15T10:17:46.780Z,3.20
2023-03-15T10:20:24.624Z,3.45
2023-03-15T10:23:00.310Z,2.95
2023-03-15T10:25:32.304Z,3.00
2023-03-15T10:28:05.421Z,4.90
2023-03-15T10:30:39.435Z,4.03
2023-03-15T10:33:27.108Z,4.22
2023-03-15T10:36:10.566Z,3.00
2023-03-15T10:38:43.162Z,3.95
2023-03-15T10:41:23.446Z,6.55
2023-03-15T10:44:03.304Z,5.57
2023-03-15T10:46:34.166Z,4.70
2023-03-15T10:49:14.078Z,5.05
2023-03-15T10:51:49.318Z,4.70
2023-03-15T10:54:21.573Z,4.63
2023-03-15T10:56:57.121Z,5.63
2023-03-15T10:59:30.710Z,4.28
2023-03-15T11:02:23.116Z,6.93
2023-03-15T11:05:02.461Z,4.03
2023-03-15T11:07:37.791Z,3.60
2023-03-15T11:10:24.010Z,3.85
2023-03-15T11:13:11.964Z,3.90
2023-03-15T11:15:43.237Z,3.53
2023-03-15T11:18:21.545Z,4.30
2023-03-15T11:20:54.610Z,4.47
2023-03-15T11:23:33.182Z,5.57
2023-03-15T11:26:04.223Z,4.63
2023-03-15T11:28:38.227Z,4.85
2023-03-15T11:31:09.153Z,4.05
2023-03-15T11:33:50.320Z,5.35
2023-03-15T11:36:23.713Z,3.80
2023-03-15T11:39:02.535Z,4.00
2023-03-15T11:41:41.207Z,3.63
2023-03-15T11:44:20.974Z,4.65
2023-03-15T11:46:56.127Z,6.00
2023-03-15T11:49:36.250Z,3.60
2023-03-15T11:52:07.810Z,4.00
2023-03-15T11:54:40.784Z,4.43
2023-03-15T11:57:45.884Z,4.32
2023-03-15T12:00:29.744Z,4.15
2023-03-15T12:03:02.925Z,3.90
2023-03-15T12:05:48.580Z,3.80
2023-03-15T12:08:29.147Z,4.00
2023-03-15T12:11:02.016Z,5.72
2023-03-15T12:13:34.214Z,3.65
2023-03-15T12:16:04.473Z,5.40
2023-03-15T12:18:36.797Z,6.18
2023-03-15T12:21:26.636Z,6.78
2023-03-15T12:24:05.342Z,2.38
2023-03-15T12:26:45.365Z,3.22
2023-03-15T12:29:19.940Z,2.75
2023-03-15T12:32:01.651Z,1.52
2023-03-15T12:34:40.027Z,1.55
2023-03-15T12:37:16.230Z,1.98
2023-03-15T12:39:51.356Z,1.23
2023-03-15T12:45:54.341Z,2.17
2023-03-15T12:48:31.722Z,5.45
2023-03-15T12:51:16.180Z,5.55
2023-03-15T12:53:57.393Z,5.65
2023-03-15T12:56:50.772Z,4.60
2023-03-15T12:59:31.868Z,6.60
2023-03-15T13:02:05.232Z,7.82
2023-03-15T13:04:42.169Z,7.45
2023-03-15T13:07:27.461Z,6.85
2023-03-15T13:10:19.017Z,6.32
2023-03-15T13:12:57.288Z,4.80
2023-03-15T13:15:33.205Z,4.93
2023-03-15T13:18:18.233Z,6.05
2023-03-15T13:21:06.903Z,5.30
2023-03-15T13:23:37.925Z,5.88
2023-03-15T13:26:24.088Z,5.90
2023-03-15T13:29:01.564Z,5.47
2023-03-15T13:31:33.501Z,5.43
2023-03-15T13:34:15.293Z,5.95
2023-03-15T13:36:49.909Z,7.10
2023-03-15T13:39:26.178Z,6.60
2023-03-15T13:42:01.529Z,6.20
2023-03-15T13:44:33.347Z,6.00
2023-03-15T13:47:04.081Z,7.32
2023-03-15T13:49:36.201Z,5.97
2023-03-15T13:52:14.286Z,6.18
2023-03-15T13:54:45.925Z,5.28
2023-03-15T13:57:19.643Z,5.97
2023-03-15T13:59:54.826Z,6.63
2023-03-15T14:02:28.094Z,8.32
2023-03-15T14:05:03.684Z,6.90
2023-03-15T14:07:41.808Z,4.97
2023-03-15T14:10:28.304Z,6.38
2023-03-15T14:12:59.317Z,7.20
2023-03-15T14:15:39.466Z,7.35
2023-03-15T14:18:20.726Z,6.38
2023-03-15T14:21:00.275Z,5.15
2023-03-15T14:23:34.472Z,6.28
2023-03-15T14:26:10.630Z,6.90
2023-03-15T14:28:41.320Z,6.03
2023-03-15T14:31:24.041Z,6.32
2023-03-15T14:34:01.013Z,7.68
2023-03-15T14:36:35.754Z,7.97
2023-03-15T14:39:20.673Z,7.07
2023-03-15T14:41:51.100Z,8.82
2023-03-15T14:44:21.334Z,5.88
2023-03-15T14:46:52.109Z,6.50
2023-03-15T14:49:27.476Z,13.25
2023-03-15T14:52:02.760Z,33.05
2023-03-15T14:54:39.099Z,16.98
2023-03-15T14:57:09.476Z,10.20
2023-03-15T14:59:41.487Z,44.38
2023-03-15T15:02:23.645Z,23.45
2023-03-15T15:04:54.398Z,16.95
2023-03-15T15:07:24.753Z,12.77
2023-03-15T15:09:59.136Z,6.93
2023-03-15T15:12:29.837Z,6.88
2023-03-15T15:15:00.220Z,6.75
2023-03-15T15:17:31.093Z,7.75
2023-03-15T15:20:02.067Z,8.25
2023-03-15T15:22:35.940Z,9.43
2023-03-15T15:25:16.216Z,7.07
2023-03-15T15:27:47.030Z,47.78
2023-03-15T15:30:22.315Z,25.98
2023-03-15T15:32:54.314Z,19.67
2023-03-15T15:35:29.430Z,9.90
2023-03-15T15:38:00.435Z,10.10
2023-03-15T15:40:35.988Z,6.00
2023-03-15T15:43:09.003Z,5.75
2023-03-15T15:45:39.224Z,8.82
2023-03-15T15:48:12.307Z,7.25
2023-03-15T15:50:43.223Z,6.15
2023-03-15T15:53:19.535Z,9.38
2023-03-15T15:55:52.505Z,8.70
2023-03-15T15:58:23.147Z,14.00
2023-03-15T16:00:53.703Z,13.77
2023-03-15T16:03:24.639Z,14.30
2023-03-15T16:05:55.048Z,11.90
2023-03-15T16:08:28.079Z,8.85
2023-03-15T16:11:00.953Z,9.13
2023-03-15T16:13:31.288Z,4.63
2023-03-15T16:16:01.559Z,7.55
2023-03-15T16:18:32.538Z,4.50
2023-03-15T16:21:03.004Z,8.35
2023-03-15T16:23:33.406Z,11.05
2023-03-15T16:26:06.583Z,6.63
2023-03-15T16:28:36.812Z,8.00
2023-03-15T16:31:07.359Z,9.43
2023-03-15T16:33:38.760Z,7.93
2023-03-15T16:36:09.713Z,8.73
2023-03-15T16:38:40.018Z,7.80
2023-03-15T16:41:17.279Z,7.28
2023-03-15T16:43:49.488Z,8.02
2023-03-15T16:46:20.448Z,5.35
2023-03-15T16:48:50.781Z,8.18
2023-03-15T16:51:21.225Z,8.52
2023-03-15T16:54:05.017Z,10.85
2023-03-15T16:56:43.719Z,11.80
2023-03-15T16:59:19.868Z,11.23
2023-03-15T17:01:50.808Z,7.68
2023-03-15T17:04:22.311Z,8.20
2023-03-15T17:06:52.816Z,7.70
2023-03-15T17:09:26.367Z,9.32
2023-03-15T17:12:00.012Z,6.18
2023-03-15T17:14:33.957Z,5.35
2023-03-15T17:19:34.717Z,6.65
2023-03-15T17:22:04.926Z,7.45
2023-03-15T17:24:35.469Z,6.32
2023-03-15T17:27:25.351Z,10.13
2023-03-15T17:29:57.116Z,6.70
2023-03-15T17:32:27.444Z,7.78
2023-03-15T17:34:59.199Z,6.03
2023-03-15T17:37:35.602Z,5.18
2023-03-15T17:40:11.760Z,6.85
2023-03-15T17:42:47.712Z,4.50
2023-03-15T17:45:20.889Z,5.72
2023-03-15T17:47:51.060Z,5.60
2023-03-15T17:50:22.105Z,5.88
2023-03-15T17:52:57.160Z,6.55
2023-03-15T17:55:29.712Z,5.18
2023-03-15T17:58:02.638Z,4.65
2023-03-15T18:00:33.608Z,6.18
2023-03-15T18:03:04.591Z,5.10
2023-03-15T18:05:34.918Z,6.68
2023-03-15T18:08:05.874Z,8.57
2023-03-15T18:10:41.724Z,9.20
2023-03-15T18:13:17.941Z,18.98
2023-03-15T18:15:49.761Z,22.35
2023-03-15T18:18:20.365Z,20.40
2023-03-15T18:20:50.881Z,25.58
2023-03-15T18:23:21.520Z,24.08
2023-03-15T18:25:52.739Z,24.42
2023-03-15T18:28:25.655Z,28.15
2023-03-15T18:30:56.110Z,26.33
2023-03-15T18:33:26.722Z,18.60
2023-03-15T18:35:56.967Z,18.98
2023-03-15T18:38:27.522Z,7.05
2023-03-15T18:40:57.920Z,8.25
2023-03-15T18:43:33.841Z,5.05
2023-03-15T18:46:10.156Z,5.00
2023-03-15T18:48:42.830Z,5.55
2023-03-15T18:51:14.800Z,6.75
2023-03-15T18:53:46.465Z,5.20
2023-03-15T18:56:20.156Z,5.72
2023-03-15T18:58:54.911Z,4.30
2023-03-15T19:01:27.270Z,4.85
2023-03-15T19:03:58.280Z,7.85
2023-03-15T19:06:28.794Z,7.90
2023-03-15T19:08:59.153Z,7.80
2023-03-15T19:11:31.795Z,8.55
2023-03-15T19:14:08.202Z,7.88
2023-03-15T19:16:38.748Z,10.15
2023-03-15T19:19:10.144Z,8.70
2023-03-15T19:21:42.527Z,11.27
2023-03-15T19:24:12.894Z,8.77
2023-03-15T19:26:43.428Z,12.88
2023-03-15T19:29:16.377Z,8.93
2023-03-15T19:31:46.693Z,11.75
2023-03-15T19:34:17.385Z,10.63
2023-03-15T19:36:47.564Z,6.60
2023-03-15T19:39:20.894Z,7.93
2023-03-15T19:41:51.406Z,9.27
2023-03-15T19:44:27.411Z,6.28
2023-03-15T19:46:57.658Z,12.60
2023-03-15T19:49:27.995Z,8.23
2023-03-15T19:51:58.239Z,7.55
2023-03-15T19:54:31.056Z,9.82
2023-03-15T19:57:01.662Z,10.63
2023-03-15T19:59:40.045Z,7.82
2023-03-15T20:02:10.679Z,9.70
2023-03-15T20:04:45.523Z,8.15
2023-03-15T20:07:16.079Z,8.60
2023-03-15T20:09:52.092Z,8.35
2023-03-15T20:12:22.315Z,8.60
2023-03-15T20:14:55.027Z,10.15
2023-03-15T20:17:27.065Z,7.40
2023-03-15T20:19:57.394Z,5.88
2023-03-15T20:22:27.790Z,8.00
2023-03-15T20:24:57.923Z,7.50
2023-03-15T20:27:36.175Z,7.60
2023-03-15T20:30:11.201Z,6.90
2023-03-15T20:32:41.480Z,11.98
2023-03-15T20:35:12.718Z,18.63
2023-03-15T20:37:43.382Z,18.92
2023-03-15T20:40:16.130Z,17.98
2023-03-15T20:42:46.468Z,19.25
2023-03-15T20:45:21.433Z,15.32
2023-03-15T20:47:52.086Z,16.35
2023-03-15T20:50:23.379Z,22.25
2023-03-15T20:52:56.885Z,20.10
2023-03-15T20:55:27.410Z,19.47
2023-03-15T20:57:57.782Z,21.08
2023-03-15T21:00:31.987Z,18.10
2023-03-15T21:03:02.259Z,15.00
2023-03-15T21:05:32.570Z,15.73
2023-03-15T21:08:02.821Z,12.77
2023-03-15T21:10:33.027Z,13.80
2023-03-15T21:13:09.876Z,11.50
2023-03-15T21:15:49.247Z,13.02
2023-03-15T21:18:21.910Z,11.98
2023-03-15T21:21:00.332Z,11.55
2023-03-15T21:23:33.092Z,11.88
2023-03-15T21:26:04.912Z,14.00
2023-03-15T21:28:35.633Z,11.77
2023-03-15T21:31:09.586Z,14.20
2023-03-15T21:36:10.703Z,10.60
2023-03-15T21:38:41.366Z,9.90
2023-03-15T21:41:12.986Z,8.98
2023-03-15T21:43:43.310Z,9.00
2023-03-15T21:46:16.410Z,7.40
2023-03-15T21:48:46.766Z,9.13
2023-03-15T21:51:16.996Z,9.48
2023-03-15T21:53:48.469Z,8.75
2023-03-15T21:56:26.160Z,8.52
2023-03-15T21:58:56.984Z,8.18
2023-03-15T22:01:30.344Z,9.00
2023-03-15T22:04:00.573Z,7.32
2023-03-15T22:06:30.894Z,11.27
2023-03-15T22:09:01.554Z,8.20
2023-03-15T22:11:31.664Z,6.95
2023-03-15T22:14:01.927Z,10.18
2023-03-15T22:16:35.396Z,8.73
2023-03-15T22:19:06.016Z,10.63
2023-03-15T22:21:36.865Z,9.90
2023-03-15T22:24:07.386Z,11.38
2023-03-15T22:26:37.638Z,12.20
2023-03-15T22:29:08.084Z,6.43
2023-03-15T22:31:40.986Z,9.77
2023-03-15T22:34:11.202Z,8.10
2023-03-15T22:36:42.897Z,7.28
2023-03-15T22:39:14.420Z,9.93
2023-03-15T22:41:44.681Z,12.07
2023-03-15T22:44:14.922Z,7.55
2023-03-15T22:46:47.782Z,7.22
2023-03-15T22:49:18.294Z,12.23
2023-03-15T22:51:48.385Z,9.18
2023-03-15T22:54:18.516Z,10.75
2023-03-15T22:56:48.756Z,6.82
2023-03-15T22:59:19.768Z,10.82
2023-03-15T23:01:53.288Z,7.13
2023-03-15T23:04:24.014Z,8.53
2023-03-15T23:06:55.198Z,7.35
2023-03-15T23:09:25.644Z,8.98
2023-03-15T23:11:55.818Z,7.35
2023-03-15T23:14:26.113Z,8.23
2023-03-15T23:16:59.345Z,7.10
2023-03-15T23:19:29.500Z,10.18
2023-03-15T23:21:59.645Z,7.65
2023-03-15T23:24:30.175Z,10.80
2023-03-15T23:27:00.319Z,8.65
2023-03-15T23:29:47.111Z,6.60
2023-03-15T23:32:27.798Z,9.20
2023-03-15T23:34:57.942Z,7.65
2023-03-15T23:37:28.753Z,6.35
2023-03-15T23:39:59.090Z,8.60
2023-03-15T23:42:29.660Z,11.57
2023-03-15T23:44:59.817Z,9.63
2023-03-15T23:47:32.603Z,8.50
2023-03-15T23:50:02.775Z,9.35
2023-03-15T23:52:33.343Z,7.55
2023-03-15T23:55:03.638Z,10.15
2023-03-15T23:57:33.808Z,8.95
